Time;durP1;ratioP1;P1;durP2;ratioP2;P2;SDS_P1;SDS_P2;PMS_P1;PMS_P2;Temp;Humidity;BMP_temperature;BMP_pressure;BME280_temperature;BME280_humidity;BME280_pressure;Samples;Min_cycle;Max_cycle;Signal;HPM_P1;HPM_P2
2021/09/07 00:00:13;;;;;;;11.40;10.20;;;15.90;99.90;;;;;;4941643;29;20524;-81
2021/09/07 00:02:40;;;;;;;12.63;11.43;;;15.90;99.90;;;;;;4940534;29;20464;-82
2021/09/07 00:05:08;;;;;;;12.87;11.30;;;15.80;99.90;;;;;;4941931;29;20470;-82
2021/09/07 00:07:35;;;;;;;11.60;10.40;;;15.80;99.90;;;;;;4941610;29;20481;-82
2021/09/07 00:10:02;;;;;;;11.50;10.40;;;15.80;99.90;;;;;;4942039;29;21032;-82
2021/09/07 00:12:29;;;;;;;12.43;11.33;;;15.80;99.90;;;;;;4940669;29;20459;-81
2021/09/07 00:14:56;;;;;;;12.77;11.77;;;15.70;99.90;;;;;;4941922;29;20454;-82
2021/09/07 00:17:24;;;;;;;12.50;10.40;;;15.70;99.90;;;;;;4941536;29;20560;-82
2021/09/07 00:19:50;;;;;;;10.80;9.80;;;15.70;99.90;;;;;;4941987;29;20848;-85
2021/09/07 00:22:18;;;;;;;11.30;10.20;;;15.70;99.90;;;;;;4940738;29;20489;-85
2021/09/07 00:24:44;;;;;;;10.10;9.10;;;15.70;99.90;;;;;;4941064;29;20828;-84
2021/09/07 00:27:11;;;;;;;11.57;9.67;;;15.60;99.90;;;;;;4941295;29;20485;-82
2021/09/07 00:29:38;;;;;;;10.67;9.57;;;15.60;99.90;;;;;;4940370;29;20460;-83
2021/09/07 00:32:05;;;;;;;15.13;12.13;;;15.60;99.90;;;;;;4940698;29;20477;-83
2021/09/07 00:34:34;;;;;;;13.17;10.07;;;15.60;99.90;;;;;;4941298;29;20464;-82
2021/09/07 00:37:01;;;;;;;12.70;10.43;;;15.50;99.90;;;;;;4941515;29;20477;-82
2021/09/07 00:39:28;;;;;;;12.23;10.73;;;15.50;99.90;;;;;;4941445;29;20454;-83
2021/09/07 00:41:54;;;;;;;11.77;10.60;;;15.40;99.90;;;;;;4940511;29;20870;-83
2021/09/07 00:44:23;;;;;;;12.40;11.30;;;15.40;99.90;;;;;;4941656;29;20459;-82
2021/09/07 00:46:51;;;;;;;13.70;11.87;;;15.40;99.90;;;;;;4941520;29;20533;-81
2021/09/07 00:49:18;;;;;;;12.53;11.40;;;15.40;99.90;;;;;;4941789;29;20455;-82
2021/09/07 00:51:49;;;;;;;12.63;11.33;;;15.40;99.90;;;;;;4940481;29;20940;-83
2021/09/07 00:54:17;;;;;;;13.90;12.53;;;15.30;99.90;;;;;;4940823;29;20442;-82
2021/09/07 00:56:44;;;;;;;12.53;11.20;;;15.30;99.90;;;;;;4940814;29;20486;-82
2021/09/07 00:59:13;;;;;;;12.33;11.30;;;15.30;99.90;;;;;;4941176;29;20805;-83
2021/09/07 01:01:40;;;;;;;13.53;12.07;;;15.30;99.90;;;;;;4939993;29;20506;-83
2021/09/07 01:04:07;;;;;;;13.07;11.57;;;15.20;99.90;;;;;;4940942;29;20464;-83
2021/09/07 01:06:35;;;;;;;12.87;11.67;;;15.20;99.90;;;;;;4940852;29;20483;-83
2021/09/07 01:09:04;;;;;;;12.83;11.57;;;15.20;99.90;;;;;;4941650;29;20825;-82
2021/09/07 01:11:30;;;;;;;11.97;10.80;;;15.20;99.90;;;;;;4939982;29;20452;-83
2021/09/07 01:13:57;;;;;;;14.43;11.53;;;15.20;99.90;;;;;;4940642;29;20457;-83
2021/09/07 01:16:24;;;;;;;11.33;10.23;;;15.10;99.90;;;;;;4940459;29;20478;-83
2021/09/07 01:18:51;;;;;;;13.60;12.30;;;15.10;99.90;;;;;;4941027;29;20463;-83
2021/09/07 01:21:18;;;;;;;11.47;10.27;;;15.10;99.90;;;;;;4940870;29;20500;-82
2021/09/07 01:23:48;;;;;;;11.47;9.87;;;15.10;99.90;;;;;;4944266;29;20463;-82
2021/09/07 01:26:17;;;;;;;12.23;11.13;;;15.00;99.90;;;;;;4951477;29;20483;-82
2021/09/07 01:28:45;;;;;;;11.70;10.60;;;15.00;99.90;;;;;;4950821;29;20458;-82
2021/09/07 01:31:13;;;;;;;11.90;9.57;;;15.00;99.90;;;;;;4941719;29;20477;-83
2021/09/07 01:33:40;;;;;;;11.93;10.77;;;15.00;99.90;;;;;;4939930;29;20459;-83
2021/09/07 01:36:07;;;;;;;11.57;10.43;;;14.90;99.90;;;;;;4941288;29;20478;-83
2021/09/07 01:38:34;;;;;;;12.60;11.30;;;14.90;99.90;;;;;;4940626;29;20455;-83
2021/09/07 01:41:02;;;;;;;12.23;11.13;;;14.90;99.90;;;;;;4940615;29;20504;-83
2021/09/07 01:43:30;;;;;;;12.97;10.40;;;14.90;99.90;;;;;;4939826;29;20457;-83
2021/09/07 01:45:57;;;;;;;12.27;11.17;;;14.90;99.90;;;;;;4940574;29;20844;-82
2021/09/07 01:48:25;;;;;;;15.33;13.83;;;14.80;99.90;;;;;;4940732;29;20468;-82
2021/09/07 01:50:53;;;;;;;13.10;11.80;;;14.80;99.90;;;;;;4940687;29;20456;-83
2021/09/07 01:53:20;;;;;;;12.70;11.50;;;14.80;99.90;;;;;;4939614;29;20935;-83
2021/09/07 01:55:50;;;;;;;13.03;11.70;;;14.80;99.90;;;;;;4940721;29;20465;-83
2021/09/07 01:58:17;;;;;;;12.70;11.40;;;14.80;99.90;;;;;;4936921;29;20470;-81
2021/09/07 02:00:45;;;;;;;12.70;11.60;;;14.80;99.90;;;;;;4937440;29;20479;-80
2021/09/07 02:03:12;;;;;;;12.70;11.50;;;14.70;99.90;;;;;;4936487;29;20454;-81
2021/09/07 02:05:38;;;;;;;12.47;11.37;;;14.70;99.90;;;;;;4937562;29;20464;-80
2021/09/07 02:08:06;;;;;;;12.17;11.07;;;14.70;99.90;;;;;;4936692;29;20455;-81
2021/09/07 02:10:32;;;;;;;11.83;10.77;;;14.70;99.90;;;;;;4937374;29;20456;-80
2021/09/07 02:12:59;;;;;;;13.10;11.67;;;14.70;99.90;;;;;;4936461;29;20537;-81
2021/09/07 02:15:29;;;;;;;13.43;12.00;;;14.60;99.90;;;;;;4937720;29;20968;-81
2021/09/07 02:17:57;;;;;;;12.50;11.20;;;14.60;99.90;;;;;;4936941;29;20479;-81
2021/09/07 02:20:23;;;;;;;11.43;10.40;;;14.60;99.90;;;;;;4937463;29;20458;-81
2021/09/07 02:22:50;;;;;;;10.97;9.97;;;14.60;99.90;;;;;;4936666;29;20496;-80
2021/09/07 02:25:17;;;;;;;12.37;11.13;;;14.60;99.90;;;;;;4937322;29;20460;-81
2021/09/07 02:27:44;;;;;;;13.87;11.80;;;14.60;99.90;;;;;;4940548;29;20481;-80
2021/09/07 02:30:12;;;;;;;11.23;10.13;;;14.50;99.90;;;;;;4940664;29;20466;-81
2021/09/07 02:32:39;;;;;;;12.53;10.70;;;14.50;99.90;;;;;;4939665;29;20539;-81
2021/09/07 02:35:08;;;;;;;11.03;10.07;;;14.50;99.90;;;;;;4940632;29;20455;-81
2021/09/07 02:37:35;;;;;;;11.90;10.70;;;14.50;99.90;;;;;;4940576;29;20470;-83
2021/09/07 02:40:01;;;;;;;13.70;11.97;;;14.50;99.90;;;;;;4940513;29;20455;-81
2021/09/07 02:42:28;;;;;;;14.30;11.03;;;14.50;99.90;;;;;;4938640;29;20485;-81
2021/09/07 02:44:55;;;;;;;12.20;10.53;;;14.50;99.90;;;;;;4939103;29;20470;-81
2021/09/07 02:47:22;;;;;;;13.17;11.77;;;14.40;99.90;;;;;;4940145;29;20476;-80
2021/09/07 02:49:48;;;;;;;13.30;12.00;;;14.40;99.90;;;;;;4939905;29;20956;-80
2021/09/07 02:52:16;;;;;;;12.07;10.90;;;14.40;99.90;;;;;;4939391;29;20451;-81
2021/09/07 02:54:43;;;;;;;14.30;12.90;;;14.40;99.90;;;;;;4940309;29;20465;-81
2021/09/07 02:57:10;;;;;;;13.20;11.90;;;14.40;99.90;;;;;;4940337;29;20486;-81
2021/09/07 02:59:37;;;;;;;12.77;11.53;;;14.30;99.90;;;;;;4940319;29;20462;-81
2021/09/07 03:02:04;;;;;;;13.20;11.87;;;14.30;99.90;;;;;;4939416;29;20858;-81
2021/09/07 03:04:31;;;;;;;13.13;11.93;;;14.30;99.90;;;;;;4940085;29;20468;-81
2021/09/07 03:06:57;;;;;;;13.37;11.90;;;14.30;99.90;;;;;;4939548;29;20470;-81
2021/09/07 03:09:25;;;;;;;12.67;11.37;;;14.20;99.90;;;;;;4940350;29;20453;-81
2021/09/07 03:11:52;;;;;;;11.93;10.70;;;14.20;99.90;;;;;;4939141;29;20876;-81
2021/09/07 03:14:19;;;;;;;12.67;11.47;;;14.20;99.90;;;;;;4940153;29;20451;-81
2021/09/07 03:16:45;;;;;;;12.47;11.33;;;14.20;99.90;;;;;;4939515;29;20481;-81
2021/09/07 03:19:12;;;;;;;12.93;11.53;;;14.20;99.90;;;;;;4939347;29;20824;-81
2021/09/07 03:21:39;;;;;;;13.03;11.73;;;14.20;99.90;;;;;;4938913;29;20490;-81
2021/09/07 03:24:06;;;;;;;13.00;11.70;;;14.20;99.90;;;;;;4939719;29;20991;-81
2021/09/07 03:26:34;;;;;;;12.07;11.03;;;14.10;99.90;;;;;;4939303;29;20488;-81
2021/09/07 03:29:01;;;;;;;12.70;11.43;;;14.10;99.90;;;;;;4939076;29;20455;-81
2021/09/07 03:31:28;;;;;;;11.83;10.63;;;14.10;99.90;;;;;;4938809;29;20472;-81
2021/09/07 03:33:55;;;;;;;11.30;10.30;;;14.10;99.90;;;;;;4938976;29;20461;-80
2021/09/07 03:36:22;;;;;;;12.90;11.63;;;14.10;99.90;;;;;;4939282;29;20483;-81
2021/09/07 03:38:49;;;;;;;10.97;9.80;;;14.00;99.90;;;;;;4938037;29;20455;-81
2021/09/07 03:41:16;;;;;;;12.40;11.07;;;14.00;99.90;;;;;;4939193;29;20465;-81
2021/09/07 03:43:44;;;;;;;14.30;12.93;;;14.00;99.90;;;;;;4938905;29;20476;-81
2021/09/07 03:46:11;;;;;;;12.77;11.40;;;13.90;99.90;;;;;;4939509;29;20859;-80
2021/09/07 03:48:37;;;;;;;12.93;11.63;;;14.00;99.90;;;;;;4940109;29;20989;-81
2021/09/07 03:51:04;;;;;;;13.37;12.07;;;13.90;99.90;;;;;;4939635;29;20548;-81
2021/09/07 03:53:31;;;;;;;12.67;11.50;;;13.90;99.90;;;;;;4938254;29;20458;-81
2021/09/07 03:55:58;;;;;;;14.20;12.90;;;13.90;99.90;;;;;;4939145;29;20517;-81
2021/09/07 03:58:26;;;;;;;12.40;11.10;;;13.80;99.90;;;;;;4939311;29;20473;-81
2021/09/07 04:00:54;;;;;;;13.97;12.13;;;13.80;99.90;;;;;;4939320;29;20465;-81
2021/09/07 04:03:21;;;;;;;12.20;10.97;;;13.70;99.90;;;;;;4938424;29;21015;-81
2021/09/07 04:05:49;;;;;;;12.10;10.60;;;13.80;99.90;;;;;;4939331;29;20465;-81
2021/09/07 04:08:16;;;;;;;12.60;11.50;;;13.70;99.90;;;;;;4939202;29;20454;-80
2021/09/07 04:10:42;;;;;;;12.33;10.77;;;13.80;99.90;;;;;;4939037;29;20454;-81
2021/09/07 04:13:09;;;;;;;11.93;10.73;;;13.70;99.90;;;;;;4938998;29;20973;-81
2021/09/07 04:15:36;;;;;;;13.10;11.80;;;13.70;99.90;;;;;;4938865;29;20460;-81
2021/09/07 04:18:04;;;;;;;12.13;11.00;;;13.70;99.90;;;;;;4938453;29;20846;-81
2021/09/07 04:20:31;;;;;;;12.40;11.10;;;13.70;99.90;;;;;;4939590;29;20465;-80
2021/09/07 04:22:57;;;;;;;13.40;12.20;;;13.70;99.90;;;;;;4937817;29;20497;-81
2021/09/07 04:25:24;;;;;;;15.73;12.73;;;13.70;99.90;;;;;;4938866;29;20462;-81
2021/09/07 04:27:51;;;;;;;14.07;12.67;;;13.70;99.90;;;;;;4938563;29;20476;-81
2021/09/07 04:30:18;;;;;;;12.30;11.10;;;13.70;99.90;;;;;;4938648;29;20453;-81
2021/09/07 04:32:45;;;;;;;12.93;11.73;;;13.70;99.90;;;;;;4938146;29;20453;-80
2021/09/07 04:35:13;;;;;;;14.20;12.80;;;13.70;99.90;;;;;;4938598;29;20489;-81
2021/09/07 04:37:40;;;;;;;16.80;13.80;;;13.70;99.90;;;;;;4938988;29;20837;-81
2021/09/07 04:40:08;;;;;;;13.53;12.13;;;13.70;99.90;;;;;;4938903;29;20961;-81
2021/09/07 04:42:34;;;;;;;14.77;12.67;;;13.70;99.90;;;;;;4938233;29;20512;-81
2021/09/07 04:45:01;;;;;;;14.90;13.43;;;13.70;99.90;;;;;;4938856;29;20453;-81
2021/09/07 04:47:28;;;;;;;16.10;14.50;;;13.70;99.90;;;;;;4938765;29;20478;-81
2021/09/07 04:49:54;;;;;;;14.93;13.60;;;13.70;99.90;;;;;;4938118;29;20460;-81
2021/09/07 04:52:22;;;;;;;13.67;12.13;;;13.70;99.90;;;;;;4938480;29;20465;-81
2021/09/07 04:54:49;;;;;;;13.70;12.30;;;13.70;99.90;;;;;;4938965;29;20453;-81
2021/09/07 04:57:16;;;;;;;14.20;12.93;;;13.80;99.90;;;;;;4938765;29;20573;-81
2021/09/07 04:59:43;;;;;;;14.57;13.20;;;13.80;99.90;;;;;;4938409;29;20454;-81
2021/09/07 05:02:09;;;;;;;14.97;13.30;;;13.80;99.90;;;;;;4938158;29;20497;-81
2021/09/07 05:04:36;;;;;;;15.67;14.13;;;13.80;99.90;;;;;;4938194;29;20456;-81
2021/09/07 05:07:03;;;;;;;14.70;13.13;;;13.80;99.90;;;;;;4938586;29;20481;-81
2021/09/07 05:09:31;;;;;;;17.37;15.67;;;13.80;99.90;;;;;;4938671;29;20449;-81
2021/09/07 05:11:58;;;;;;;17.97;16.30;;;13.80;99.90;;;;;;4937828;29;20455;-81
2021/09/07 05:14:25;;;;;;;15.47;13.87;;;13.80;99.90;;;;;;4938842;29;20462;-81
2021/09/07 05:16:51;;;;;;;18.30;13.50;;;13.90;99.90;;;;;;4938746;29;20502;-81
2021/09/07 05:19:18;;;;;;;13.83;12.37;;;13.90;99.90;;;;;;4938794;29;20472;-81
2021/09/07 05:21:45;;;;;;;13.53;12.10;;;14.00;99.90;;;;;;4937379;29;20824;-81
2021/09/07 05:24:12;;;;;;;13.90;12.50;;;14.00;99.90;;;;;;4937608;29;20459;-81
2021/09/07 05:26:40;;;;;;;14.47;13.03;;;14.00;99.90;;;;;;4938269;29;20478;-81
2021/09/07 05:29:07;;;;;;;14.30;12.93;;;14.00;99.90;;;;;;4939048;29;20460;-81
2021/09/07 05:31:34;;;;;;;14.87;12.03;;;14.00;99.90;;;;;;4937306;29;20454;-81
2021/09/07 05:34:00;;;;;;;12.93;11.53;;;14.10;99.90;;;;;;4938398;29;20489;-81
2021/09/07 05:36:27;;;;;;;22.00;13.80;;;14.10;99.90;;;;;;4938101;29;20490;-81
2021/09/07 05:38:54;;;;;;;12.70;11.50;;;14.20;99.90;;;;;;4937935;29;20450;-81
2021/09/07 05:41:20;;;;;;;14.83;13.23;;;14.20;99.90;;;;;;4937121;29;20976;-81
2021/09/07 05:43:48;;;;;;;16.60;13.83;;;14.30;99.90;;;;;;4937505;29;20501;-81
2021/09/07 05:46:15;;;;;;;14.93;13.10;;;14.40;99.90;;;;;;4937825;29;20475;-81
2021/09/07 05:48:42;;;;;;;13.47;12.07;;;14.50;99.90;;;;;;4942154;29;20455;-81
2021/09/07 05:51:08;;;;;;;15.23;13.60;;;14.60;99.90;;;;;;4944841;29;20455;-81
2021/09/07 05:53:35;;;;;;;16.37;14.77;;;14.70;99.90;;;;;;4944597;29;20451;-81
2021/09/07 05:56:02;;;;;;;15.73;14.10;;;14.70;99.90;;;;;;4937360;29;20479;-81
2021/09/07 05:58:29;;;;;;;14.77;13.17;;;14.80;99.90;;;;;;4937142;29;20465;-81
2021/09/07 06:00:57;;;;;;;16.20;14.50;;;14.90;99.90;;;;;;4938148;29;20465;-81
2021/09/07 06:03:23;;;;;;;19.67;14.30;;;15.00;99.90;;;;;;4940054;29;20501;-81
2021/09/07 06:05:51;;;;;;;13.90;12.57;;;15.10;99.90;;;;;;4940428;29;20470;-81
2021/09/07 06:08:18;;;;;;;15.33;13.27;;;15.20;99.90;;;;;;4940445;29;20458;-81
2021/09/07 06:10:45;;;;;;;17.20;14.00;;;15.20;99.90;;;;;;4940619;29;20805;-81
2021/09/07 06:13:11;;;;;;;14.77;13.23;;;15.30;99.90;;;;;;4940876;29;20458;-81
2021/09/07 06:15:41;;;;;;;13.20;12.10;;;15.40;99.90;;;;;;4940981;29;20462;-81
2021/09/07 06:18:09;;;;;;;14.83;13.33;;;15.40;99.90;;;;;;4940791;29;20462;-81
2021/09/07 06:20:36;;;;;;;15.03;13.50;;;15.50;99.90;;;;;;4940310;29;20465;-81
2021/09/07 06:23:02;;;;;;;16.80;13.93;;;15.60;99.90;;;;;;4939653;29;20490;-82
2021/09/07 06:25:29;;;;;;;16.53;13.67;;;15.60;99.90;;;;;;4940970;29;20833;-81
2021/09/07 06:27:56;;;;;;;15.03;13.50;;;15.70;99.90;;;;;;4942659;29;20490;-81
2021/09/07 06:30:23;;;;;;;17.00;13.27;;;15.80;99.90;;;;;;4943733;29;20976;-81
2021/09/07 06:32:49;;;;;;;20.00;14.63;;;15.80;99.90;;;;;;4942801;29;20458;-81
2021/09/07 06:35:17;;;;;;;15.90;12.90;;;15.80;99.90;;;;;;4943701;29;20461;-81
2021/09/07 06:37:44;;;;;;;16.63;14.93;;;15.90;99.90;;;;;;4943149;29;20478;-81
2021/09/07 06:40:12;;;;;;;14.97;13.03;;;16.00;99.90;;;;;;4943355;29;20465;-81
2021/09/07 06:42:40;;;;;;;15.90;13.63;;;16.10;99.90;;;;;;4943291;29;20517;-81
2021/09/07 06:45:08;;;;;;;18.27;12.67;;;16.20;99.90;;;;;;4943164;29;20455;-81
2021/09/07 06:47:34;;;;;;;18.70;15.90;;;16.30;99.90;;;;;;4943238;29;20481;-81
2021/09/07 06:50:02;;;;;;;14.27;12.87;;;16.40;99.90;;;;;;4943428;29;20463;-81
2021/09/07 06:52:30;;;;;;;23.07;16.83;;;16.50;99.90;;;;;;4944266;29;20452;-81
2021/09/07 06:54:57;;;;;;;16.87;15.23;;;16.60;99.90;;;;;;4946263;29;20470;-82
2021/09/07 06:57:25;;;;;;;17.37;15.50;;;16.70;99.90;;;;;;4948973;28;21001;-81
2021/09/07 06:59:53;;;;;;;19.10;15.53;;;16.70;99.90;;;;;;4950759;29;20452;-81
2021/09/07 07:02:20;;;;;;;19.33;14.27;;;16.90;99.90;;;;;;4948895;29;20460;-82
2021/09/07 07:04:47;;;;;;;16.90;14.03;;;16.90;99.90;;;;;;4948902;29;20456;-82
2021/09/07 07:07:14;;;;;;;17.23;14.77;;;17.00;99.90;;;;;;4951702;29;20471;-82
2021/09/07 07:09:42;;;;;;;16.00;14.50;;;17.00;99.90;;;;;;4953348;29;20451;-81
2021/09/07 07:12:09;;;;;;;16.77;15.03;;;17.00;99.90;;;;;;4949713;28;20448;-81
2021/09/07 07:14:36;;;;;;;18.40;15.17;;;17.10;99.90;;;;;;4948421;29;20447;-82
2021/09/07 07:17:03;;;;;;;17.53;14.30;;;17.20;99.90;;;;;;4950203;29;20476;-82
2021/09/07 07:19:30;;;;;;;20.03;15.73;;;17.30;99.90;;;;;;4942126;29;20832;-81
2021/09/07 07:21:56;;;;;;;18.10;13.67;;;17.40;99.90;;;;;;4938239;29;20464;-81
2021/09/07 07:24:23;;;;;;;15.50;14.00;;;17.50;99.90;;;;;;4939038;29;20501;-81
2021/09/07 07:26:51;;;;;;;17.40;15.27;;;17.70;99.90;;;;;;4939420;29;20861;-81
2021/09/07 07:29:18;;;;;;;15.80;14.20;;;17.80;99.90;;;;;;4940192;29;20460;-81
2021/09/07 07:31:45;;;;;;;18.77;14.83;;;18.00;99.90;;;;;;4939216;29;20460;-81
2021/09/07 07:34:11;;;;;;;16.47;13.87;;;18.20;99.90;;;;;;4940769;29;20464;-81
2021/09/07 07:36:38;;;;;;;15.37;13.97;;;18.40;99.90;;;;;;4940237;29;20485;-82
2021/09/07 07:39:05;;;;;;;15.20;13.60;;;18.60;99.90;;;;;;4940689;29;20457;-82
2021/09/07 07:41:32;;;;;;;17.00;14.00;;;18.80;99.90;;;;;;4939666;29;21267;-81
2021/09/07 07:44:00;;;;;;;16.43;14.60;;;19.00;99.90;;;;;;4949678;29;20490;-84
2021/09/07 07:46:27;;;;;;;15.77;14.23;;;19.20;99.90;;;;;;4943072;29;20909;-83
2021/09/07 07:48:54;;;;;;;14.93;13.30;;;19.40;99.90;;;;;;4956677;29;20487;-83
2021/09/07 07:51:21;;;;;;;17.93;14.60;;;19.60;99.90;;;;;;4957018;29;21164;-79
2021/09/07 07:53:48;;;;;;;15.90;13.60;;;19.70;99.90;;;;;;4959941;29;20445;-84
2021/09/07 07:56:15;;;;;;;17.80;13.93;;;19.90;99.90;;;;;;4959738;29;20480;-83
2021/09/07 07:58:41;;;;;;;18.90;15.13;;;20.00;99.90;;;;;;4947091;29;20474;-83
2021/09/07 08:01:09;;;;;;;21.50;14.30;;;20.20;99.90;;;;;;4919122;29;20820;-84
2021/09/07 08:03:36;;;;;;;16.67;13.53;;;20.40;99.90;;;;;;4919647;29;20498;-84
2021/09/07 08:06:03;;;;;;;16.23;14.70;;;20.50;99.90;;;;;;4920135;29;20483;-84
2021/09/07 08:08:30;;;;;;;15.30;12.60;;;20.60;99.90;;;;;;4919754;29;20955;-80
2021/09/07 08:10:56;;;;;;;17.63;13.90;;;20.70;99.90;;;;;;4919839;29;20455;-80
2021/09/07 08:13:23;;;;;;;17.50;12.90;;;20.80;99.90;;;;;;4922132;29;20460;-84
2021/09/07 08:15:50;;;;;;;13.37;11.97;;;20.80;99.90;;;;;;4919536;29;20843;-83
2021/09/07 08:18:18;;;;;;;13.33;11.90;;;21.00;99.80;;;;;;4919673;29;20465;-83
2021/09/07 08:20:45;;;;;;;15.77;13.87;;;21.00;99.80;;;;;;4920097;29;20460;-84
2021/09/07 08:23:12;;;;;;;13.87;11.20;;;21.10;99.60;;;;;;4919629;29;20489;-81
2021/09/07 08:25:38;;;;;;;14.23;11.30;;;21.20;99.30;;;;;;4922354;29;20462;-81
2021/09/07 08:28:05;;;;;;;12.93;10.90;;;21.30;98.50;;;;;;4922507;29;20465;-84
2021/09/07 08:30:32;;;;;;;11.40;10.30;;;21.30;98.20;;;;;;4923213;29;20460;-84
2021/09/07 08:32:59;;;;;;;16.17;11.63;;;21.30;97.20;;;;;;4922852;29;20468;-84
2021/09/07 08:35:28;;;;;;;13.13;11.80;;;21.30;97.90;;;;;;4921930;29;20464;-85
2021/09/07 08:37:54;;;;;;;14.10;11.67;;;21.40;97.30;;;;;;4921253;29;20491;-83
2021/09/07 08:40:21;;;;;;;12.00;10.07;;;21.40;96.20;;;;;;4922096;29;20457;-84
2021/09/07 08:42:48;;;;;;;13.27;10.73;;;21.50;96.20;;;;;;4961490;23;21068;-82
2021/09/07 08:45:16;;;;;;;14.00;11.83;;;21.60;96.90;;;;;;4945854;29;20460;-81
2021/09/07 08:47:44;;;;;;;15.40;13.27;;;21.70;96.30;;;;;;4938980;29;20830;-81
2021/09/07 08:50:12;;;;;;;12.30;11.00;;;21.80;96.20;;;;;;4939584;29;20531;-81
2021/09/07 08:52:41;;;;;;;11.60;10.50;;;21.60;95.80;;;;;;4938653;29;20561;-81
2021/09/07 08:55:08;;;;;;;11.87;10.67;;;21.80;95.00;;;;;;4938553;29;20456;-81
2021/09/07 08:57:35;;;;;;;13.00;9.73;;;21.90;95.40;;;;;;4938866;29;20465;-81
2021/09/07 09:00:05;;;;;;;11.87;10.63;;;21.90;95.30;;;;;;4938217;29;20460;-81
2021/09/07 09:02:40;;;;;;;12.50;11.20;;;22.10;95.60;;;;;;4938495;29;20503;-81
2021/09/07 09:05:08;;;;;;;11.90;10.70;;;22.20;95.50;;;;;;4939353;29;20474;-81
2021/09/07 09:07:34;;;;;;;12.13;10.93;;;22.30;95.10;;;;;;4938359;29;20819;-81
2021/09/07 09:10:03;;;;;;;11.60;10.50;;;22.40;95.40;;;;;;4939199;29;20512;-81
2021/09/07 09:12:32;;;;;;;13.63;11.93;;;22.50;95.40;;;;;;4937540;29;20473;-81
2021/09/07 09:14:59;;;;;;;14.50;11.50;;;22.60;95.00;;;;;;4939026;29;20450;-81
2021/09/07 09:17:28;;;;;;;12.70;10.90;;;22.70;95.40;;;;;;4938669;29;20457;-81
2021/09/07 09:19:57;;;;;;;11.63;10.43;;;22.80;94.80;;;;;;4938880;29;20454;-81
2021/09/07 09:22:40;;;;;;;11.80;10.73;;;22.70;93.80;;;;;;4938188;29;20472;-81
2021/09/07 09:25:37;;;;;;;10.60;9.80;;;22.80;94.40;;;;;;4938611;29;20907;-81
2021/09/07 09:28:22;;;;;;;10.53;9.50;;;23.00;93.10;;;;;;4939159;29;20453;-81
2021/09/07 09:30:52;;;;;;;11.27;10.27;;;23.20;93.30;;;;;;4939000;29;20449;-81
2021/09/07 09:33:20;;;;;;;10.07;9.07;;;23.40;93.20;;;;;;4937895;29;20833;-81
2021/09/07 09:35:54;;;;;;;10.70;9.70;;;23.60;92.20;;;;;;4940292;29;20808;-81
2021/09/07 09:38:22;;;;;;;10.70;8.80;;;23.70;91.40;;;;;;4942856;29;20652;-81
2021/09/07 09:40:58;;;;;;;11.00;9.00;;;23.70;90.60;;;;;;4942920;29;20460;-82
2021/09/07 09:43:43;;;;;;;9.70;8.73;;;23.70;90.10;;;;;;4941874;29;20494;-81
2021/09/07 09:46:22;;;;;;;8.30;7.50;;;23.70;90.20;;;;;;4942808;29;20458;-81
2021/09/07 09:48:49;;;;;;;11.00;9.77;;;23.90;90.80;;;;;;4942615;29;20454;-81
2021/09/07 09:51:17;;;;;;;8.70;7.80;;;24.00;90.10;;;;;;4942033;29;20475;-81
2021/09/07 09:53:46;;;;;;;10.40;9.43;;;24.10;87.20;;;;;;4941866;29;20538;-81
2021/09/07 09:56:14;;;;;;;10.37;7.93;;;24.20;88.70;;;;;;4942244;29;20521;-81
2021/09/07 09:58:41;;;;;;;8.30;7.60;;;24.30;87.10;;;;;;4942120;29;20947;-81
2021/09/07 10:01:09;;;;;;;8.50;7.70;;;24.40;90.10;;;;;;4943192;29;20976;-82
2021/09/07 10:03:38;;;;;;;8.57;7.87;;;24.50;86.80;;;;;;4942430;29;20491;-82
2021/09/07 10:06:06;;;;;;;9.70;8.70;;;24.60;83.90;;;;;;4943701;29;20455;-82
2021/09/07 10:08:34;;;;;;;9.13;8.23;;;24.80;86.80;;;;;;4942624;29;21018;-82
2021/09/07 10:11:07;;;;;;;7.67;6.97;;;25.00;84.50;;;;;;4942350;29;20470;-82
2021/09/07 10:13:39;;;;;;;7.97;6.90;;;25.10;80.80;;;;;;4942858;29;20482;-82
2021/09/07 10:16:08;;;;;;;12.67;8.87;;;25.20;79.30;;;;;;4942640;29;20457;-81
2021/09/07 10:18:53;;;;;;;7.97;7.30;;;25.30;77.60;;;;;;4943010;29;20505;-82
2021/09/07 10:24:52;;;;;;;9.80;8.60;;;25.40;78.40;;;;;;4941969;29;20489;-81
2021/09/07 10:27:19;;;;;;;10.27;7.97;;;25.50;80.20;;;;;;4941430;29;20488;-82
2021/09/07 10:29:47;;;;;;;9.50;8.57;;;25.70;77.80;;;;;;4942106;29;20456;-82
2021/09/07 10:32:29;;;;;;;8.17;7.47;;;25.80;76.90;;;;;;4941451;29;20471;-82
2021/09/07 10:35:12;;;;;;;8.93;8.03;;;26.00;77.50;;;;;;4941959;29;20860;-82
2021/09/07 10:38:13;;;;;;;9.73;8.93;;;26.20;76.90;;;;;;4941821;29;20457;-82
2021/09/07 10:40:49;;;;;;;8.10;7.40;;;26.10;76.50;;;;;;4941466;29;20511;-82
2021/09/07 10:43:49;;;;;;;8.83;8.03;;;26.30;75.90;;;;;;4941133;29;20522;-81
2021/09/07 10:46:37;;;;;;;8.10;7.33;;;26.50;76.80;;;;;;4941596;29;20454;-82
2021/09/07 10:49:23;;;;;;;8.80;8.00;;;26.60;77.20;;;;;;4944051;29;20455;-82
2021/09/07 10:52:13;;;;;;;9.40;8.60;;;26.80;79.00;;;;;;4942525;29;20487;-82
2021/09/07 10:54:46;;;;;;;8.67;7.90;;;27.20;73.00;;;;;;4942999;29;20830;-82
2021/09/07 10:57:48;;;;;;;8.70;7.97;;;27.40;71.10;;;;;;4943731;29;20455;-82
2021/09/07 11:00:33;;;;;;;8.23;7.53;;;27.70;70.20;;;;;;4942090;29;20459;-82
2021/09/07 11:03:02;;;;;;;9.83;8.93;;;28.00;69.50;;;;;;4939910;29;20501;-82
2021/09/07 11:05:48;;;;;;;10.03;9.00;;;28.30;66.80;;;;;;4941055;29;20491;-81
2021/09/07 11:08:43;;;;;;;8.03;7.43;;;28.70;67.70;;;;;;4941200;29;20454;-82
2021/09/07 11:11:25;;;;;;;6.70;6.10;;;29.00;65.50;;;;;;4941633;29;20465;-82
2021/09/07 11:13:54;;;;;;;8.73;7.93;;;29.30;63.10;;;;;;4940681;29;20517;-82
2021/09/07 11:16:21;;;;;;;8.30;7.57;;;29.70;62.60;;;;;;4940149;29;20453;-82
2021/09/07 11:18:49;;;;;;;9.03;8.33;;;29.90;59.80;;;;;;4939885;29;20938;-81
2021/09/07 11:21:16;;;;;;;8.50;7.80;;;30.10;60.80;;;;;;4939945;29;20845;-82
2021/09/07 11:23:43;;;;;;;8.30;7.70;;;30.50;60.50;;;;;;4938429;29;21077;-82
2021/09/07 11:26:11;;;;;;;8.53;7.73;;;31.00;58.60;;;;;;4939551;29;20460;-82
2021/09/07 11:28:40;;;;;;;9.30;8.40;;;31.40;58.10;;;;;;4940054;29;20463;-82
2021/09/07 11:31:09;;;;;;;9.50;8.70;;;31.90;59.90;;;;;;4940266;29;20466;-82
2021/09/07 11:33:37;;;;;;;8.60;7.90;;;32.30;56.20;;;;;;4939320;29;20962;-82
2021/09/07 11:36:06;;;;;;;8.30;7.70;;;32.60;56.30;;;;;;4939847;29;20483;-82
2021/09/07 11:38:34;;;;;;;8.47;7.87;;;33.00;54.80;;;;;;4938990;29;20447;-82
2021/09/07 11:41:03;;;;;;;8.70;7.97;;;33.30;53.00;;;;;;4938480;29;20456;-82
2021/09/07 11:43:32;;;;;;;8.33;7.70;;;33.50;51.00;;;;;;4937869;29;20454;-82
2021/09/07 11:46:07;;;;;;;10.20;9.07;;;33.70;48.80;;;;;;4939392;29;20461;-82
2021/09/07 11:48:34;;;;;;;7.47;6.67;;;33.90;49.00;;;;;;4939218;29;20453;-82
2021/09/07 11:51:01;;;;;;;8.10;7.43;;;34.10;50.10;;;;;;4938230;29;20453;-82
2021/09/07 11:53:30;;;;;;;8.17;7.50;;;34.30;48.20;;;;;;4938252;29;20468;-82
2021/09/07 11:55:57;;;;;;;8.23;7.60;;;34.40;47.30;;;;;;4942529;29;20801;-82
2021/09/07 11:58:32;;;;;;;8.97;8.27;;;34.40;47.00;;;;;;4941124;29;20466;-82
2021/09/07 12:01:11;;;;;;;8.30;7.60;;;34.40;47.50;;;;;;4940412;29;20468;-82
2021/09/07 12:03:44;;;;;;;8.50;7.87;;;34.30;47.60;;;;;;4938517;29;20969;-82
2021/09/07 12:06:13;;;;;;;7.90;7.30;;;34.40;47.20;;;;;;4940292;29;20504;-82
2021/09/07 12:08:44;;;;;;;8.17;7.47;;;34.40;44.70;;;;;;4940683;29;20465;-82
2021/09/07 12:11:13;;;;;;;7.80;7.30;;;34.50;44.00;;;;;;4941477;29;20454;-82
2021/09/07 12:13:41;;;;;;;7.47;6.97;;;34.60;46.40;;;;;;4940690;29;20515;-83
2021/09/07 12:16:08;;;;;;;7.70;7.10;;;35.00;45.80;;;;;;4941826;29;20465;-82
2021/09/07 12:18:40;;;;;;;7.70;7.20;;;35.30;42.50;;;;;;4940941;29;20461;-82
2021/09/07 12:21:21;;;;;;;8.60;7.90;;;35.50;43.10;;;;;;4941324;29;20473;-82
2021/09/07 12:23:52;;;;;;;9.07;8.23;;;35.60;41.80;;;;;;4940609;29;20450;-82
2021/09/07 12:26:37;;;;;;;8.13;7.50;;;35.60;41.70;;;;;;4941374;29;20465;-82
2021/09/07 12:29:18;;;;;;;7.37;6.83;;;35.70;40.80;;;;;;4941723;29;20449;-82
2021/09/07 12:31:46;;;;;;;6.93;6.43;;;35.90;41.70;;;;;;4940373;29;20476;-83
2021/09/07 12:34:21;;;;;;;8.50;7.90;;;36.00;40.70;;;;;;4941718;29;20453;-82
2021/09/07 12:36:50;;;;;;;10.13;8.73;;;36.20;41.00;;;;;;4941509;29;20445;-82
2021/09/07 12:39:20;;;;;;;8.60;7.80;;;36.50;41.10;;;;;;4942147;29;20458;-82
2021/09/07 12:41:47;;;;;;;7.87;7.27;;;36.80;41.20;;;;;;4940698;29;20489;-83